Time;durP1;ratioP1;P1;durP2;ratioP2;P2;SDS_P1;SDS_P2;PMS_P1;PMS_P2;Temp;Humidity;BMP_temperature;BMP_pressure;BME280_temperature;BME280_humidity;BME280_pressure;Samples;Min_cycle;Max_cycle;Signal;HPM_P1;HPM_P2
2023/09/27 00:01:14;;;;;;;6.80;5.93;;;17.70;1.00;;;;;;5018236;28;20609;-82
2023/09/27 00:03:40;;;;;;;8.53;6.20;;;17.70;1.00;;;;;;5030647;28;20633;-82
2023/09/27 00:06:05;;;;;;;7.60;6.27;;;17.60;1.00;;;;;;5030101;28;20178;-84
2023/09/27 00:08:31;;;;;;;7.50;6.60;;;17.60;1.00;;;;;;5032665;28;20220;-83
2023/09/27 00:10:57;;;;;;;7.60;6.40;;;17.50;1.00;;;;;;5031175;28;20182;-82
2023/09/27 00:13:22;;;;;;;8.07;6.00;;;17.50;1.00;;;;;;5034905;28;20197;-82
2023/09/27 00:15:48;;;;;;;6.63;5.63;;;17.50;1.00;;;;;;5016777;28;20222;-83
2023/09/27 00:18:14;;;;;;;8.27;6.30;;;17.40;1.00;;;;;;5031829;28;20267;-83
2023/09/27 00:20:40;;;;;;;6.87;6.17;;;17.40;1.00;;;;;;5031934;28;20261;-82
2023/09/27 00:23:07;;;;;;;9.93;6.30;;;17.40;1.00;;;;;;5031124;28;20983;-84
2023/09/27 00:25:33;;;;;;;6.63;5.90;;;17.40;1.00;;;;;;5030225;28;20246;-82
2023/09/27 00:27:59;;;;;;;7.70;6.83;;;17.40;1.00;;;;;;5017905;28;20443;-80
2023/09/27 00:30:27;;;;;;;6.47;5.87;;;17.30;1.00;;;;;;5034233;28;20185;-84
2023/09/27 00:32:53;;;;;;;6.63;5.83;;;17.30;1.00;;;;;;5032455;28;20241;-82
2023/09/27 00:35:19;;;;;;;7.10;5.70;;;17.30;1.00;;;;;;5013713;28;20464;-83
2023/09/27 00:37:48;;;;;;;7.00;5.80;;;17.30;9.30;;;;;;5028688;28;20436;-83
2023/09/27 00:40:17;;;;;;;6.20;5.23;;;17.30;8.60;;;;;;5029894;28;20447;-78
2023/09/27 00:42:42;;;;;;;8.43;5.87;;;17.30;1.00;;;;;;5009703;28;20574;-84
2023/09/27 00:45:08;;;;;;;6.20;5.33;;;17.30;1.00;;;;;;5017309;28;20556;-82
2023/09/27 00:47:35;;;;;;;9.27;5.40;;;17.30;1.00;;;;;;5042446;28;20193;-82
2023/09/27 00:50:02;;;;;;;5.93;5.33;;;17.30;1.00;;;;;;5038678;28;20440;-83
2023/09/27 00:52:28;;;;;;;10.60;6.10;;;17.20;1.00;;;;;;5036177;28;20888;-83
2023/09/27 00:54:53;;;;;;;7.87;6.40;;;17.20;1.00;;;;;;5024185;28;20464;-84
2023/09/27 00:57:19;;;;;;;7.97;6.50;;;17.10;1.00;;;;;;5041498;28;20236;-82
2023/09/27 00:59:45;;;;;;;9.00;6.37;;;17.00;1.00;;;;;;5041116;28;20185;-82
2023/09/27 01:02:12;;;;;;;6.63;6.03;;;16.90;99.90;;;;;;5012753;28;20707;-82
2023/09/27 01:04:39;;;;;;;6.53;5.93;;;16.90;99.90;;;;;;5038450;28;20509;-82
2023/09/27 01:07:04;;;;;;;6.70;5.40;;;16.80;99.90;;;;;;5039094;28;20448;-81
2023/09/27 01:09:32;;;;;;;6.93;5.80;;;16.80;99.90;;;;;;5038350;28;20999;-82
2023/09/27 01:11:57;;;;;;;6.50;5.83;;;16.70;99.90;;;;;;5023986;28;20697;-85
2023/09/27 01:14:23;;;;;;;6.27;5.67;;;16.70;1.00;;;;;;5025720;28;20885;-83
2023/09/27 01:16:48;;;;;;;9.17;5.70;;;16.60;1.00;;;;;;5025318;28;20210;-81
2023/09/27 01:19:14;;;;;;;10.53;6.00;;;16.60;1.00;;;;;;5022903;28;20178;-82
2023/09/27 01:21:39;;;;;;;5.97;5.13;;;16.50;1.00;;;;;;5038105;28;20236;-82
2023/09/27 01:24:06;;;;;;;7.07;5.10;;;16.50;99.90;;;;;;5037649;28;20557;-81
2023/09/27 01:26:33;;;;;;;6.40;5.80;;;16.40;99.90;;;;;;5037770;28;20277;-83
2023/09/27 01:28:59;;;;;;;8.47;6.43;;;16.30;1.00;;;;;;5023483;28;20444;-83
2023/09/27 01:31:25;;;;;;;7.00;5.77;;;16.30;82.60;;;;;;5044981;28;20827;-82
2023/09/27 01:33:50;;;;;;;8.63;6.57;;;16.30;99.90;;;;;;5036338;28;20264;-83
2023/09/27 01:36:16;;;;;;;7.67;6.50;;;16.20;99.90;;;;;;5037637;28;20288;-82
2023/09/27 01:38:42;;;;;;;10.37;6.20;;;16.20;99.90;;;;;;5038200;28;20178;-82
2023/09/27 01:41:07;;;;;;;6.90;5.53;;;16.20;99.90;;;;;;5041805;28;20516;-82
2023/09/27 01:43:38;;;;;;;6.60;5.37;;;16.10;99.90;;;;;;5044895;28;20300;-82
2023/09/27 01:46:04;;;;;;;5.83;5.20;;;16.00;1.00;;;;;;5037700;28;20551;-82
2023/09/27 01:48:32;;;;;;;7.27;5.90;;;16.10;1.00;;;;;;5040804;28;20467;-82
2023/09/27 01:50:58;;;;;;;6.80;5.20;;;16.10;1.00;;;;;;5036665;28;20218;-85
2023/09/27 01:53:23;;;;;;;7.17;5.80;;;16.00;1.00;;;;;;5032823;28;21087;-81
2023/09/27 01:55:49;;;;;;;5.90;5.33;;;16.00;1.00;;;;;;5034436;28;20236;-83
2023/09/27 01:58:15;;;;;;;5.77;5.17;;;16.00;1.00;;;;;;5042971;28;20574;-83
2023/09/27 02:00:40;;;;;;;6.80;5.30;;;16.00;1.00;;;;;;5035590;28;20279;-80
2023/09/27 02:03:06;;;;;;;8.20;6.33;;;16.00;1.00;;;;;;5036244;28;20287;-83
2023/09/27 02:05:31;;;;;;;8.37;6.40;;;16.00;1.00;;;;;;5021177;28;20190;-83
2023/09/27 02:07:57;;;;;;;7.40;5.80;;;15.90;50.70;;;;;;5032191;28;20193;-82
2023/09/27 02:10:24;;;;;;;6.53;5.90;;;15.80;1.00;;;;;;5034454;28;20228;-81
2023/09/27 02:12:49;;;;;;;8.60;7.37;;;15.80;99.90;;;;;;5036838;28;20468;-83
2023/09/27 02:15:15;;;;;;;8.80;7.63;;;15.60;99.90;;;;;;5041439;28;20460;-82
2023/09/27 02:17:43;;;;;;;8.23;7.40;;;15.50;6.80;;;;;;5046774;28;20269;-81
2023/09/27 02:20:10;;;;;;;9.00;7.50;;;15.40;99.90;;;;;;5042978;28;20444;-83
2023/09/27 02:22:42;;;;;;;8.83;7.13;;;15.40;99.90;;;;;;5024082;28;20857;-82
2023/09/27 02:25:11;;;;;;;8.87;7.33;;;15.30;99.90;;;;;;5042261;28;20433;-82
2023/09/27 02:27:37;;;;;;;9.57;8.07;;;15.30;99.90;;;;;;5048635;28;20447;-83
2023/09/27 02:30:11;;;;;;;9.20;8.10;;;15.30;1.00;;;;;;5022623;28;20437;-82
2023/09/27 02:32:40;;;;;;;10.80;7.00;;;15.30;99.90;;;;;;5026006;28;20488;-83
2023/09/27 02:35:07;;;;;;;12.07;7.83;;;15.40;99.90;;;;;;5039677;28;20981;-83
2023/09/27 02:37:32;;;;;;;10.23;7.90;;;15.40;99.90;;;;;;5021637;28;20468;-83
2023/09/27 02:39:58;;;;;;;10.73;6.77;;;15.50;99.90;;;;;;5036794;28;20997;-82
2023/09/27 02:42:24;;;;;;;10.17;7.80;;;15.50;3.50;;;;;;5020673;28;20241;-79
2023/09/27 02:44:50;;;;;;;8.03;7.30;;;15.50;1.00;;;;;;5031793;28;20460;-84
2023/09/27 02:47:16;;;;;;;11.53;8.10;;;15.50;1.00;;;;;;5040797;28;20491;-82
2023/09/27 02:49:41;;;;;;;11.30;7.37;;;15.50;1.00;;;;;;5036806;28;20503;-82
2023/09/27 02:52:07;;;;;;;9.07;7.93;;;15.50;1.00;;;;;;5032592;28;20977;-83
2023/09/27 02:54:33;;;;;;;11.37;7.67;;;15.50;99.90;;;;;;5037996;28;20239;-84
2023/09/27 02:56:58;;;;;;;8.37;7.57;;;15.50;99.90;;;;;;5034981;28;20181;-82
2023/09/27 02:59:24;;;;;;;8.10;7.20;;;15.40;99.90;;;;;;5037460;28;20453;-83
2023/09/27 03:01:49;;;;;;;8.90;7.60;;;15.40;99.90;;;;;;5036645;28;20182;-82
2023/09/27 03:04:15;;;;;;;10.20;7.83;;;15.40;1.00;;;;;;5036952;28;20191;-81
2023/09/27 03:06:41;;;;;;;8.80;7.83;;;15.40;1.00;;;;;;5024846;28;20668;-81
2023/09/27 03:09:11;;;;;;;12.23;7.60;;;15.40;99.90;;;;;;5035941;28;20438;-84
2023/09/27 03:11:37;;;;;;;12.23;8.40;;;15.40;99.90;;;;;;5035164;28;20436;-81
2023/09/27 03:14:03;;;;;;;11.57;8.30;;;15.30;99.90;;;;;;5038281;28;20933;-82
2023/09/27 03:16:29;;;;;;;10.03;7.67;;;15.40;1.00;;;;;;5032137;28;20448;-84
2023/09/27 03:18:54;;;;;;;12.47;8.47;;;15.30;1.00;;;;;;5031851;28;20667;-84
2023/09/27 03:21:20;;;;;;;12.90;8.20;;;15.30;1.00;;;;;;5018722;28;20452;-82
2023/09/27 03:23:46;;;;;;;9.87;8.07;;;15.30;1.00;;;;;;5033785;28;20264;-82
2023/09/27 03:26:12;;;;;;;10.60;8.30;;;15.20;1.00;;;;;;5035136;28;21078;-81
2023/09/27 03:28:38;;;;;;;10.97;7.87;;;15.20;1.00;;;;;;5037765;28;20182;-84
2023/09/27 03:31:05;;;;;;;14.50;9.33;;;15.20;1.00;;;;;;5038331;28;20316;-82
2023/09/27 03:33:30;;;;;;;11.40;8.63;;;15.10;1.00;;;;;;5046452;28;20872;-82
2023/09/27 03:35:57;;;;;;;10.53;8.60;;;15.20;1.00;;;;;;5040982;28;20446;-82
2023/09/27 03:38:23;;;;;;;10.77;8.27;;;15.10;1.00;;;;;;5029002;28;20190;-81
2023/09/27 03:40:48;;;;;;;13.07;8.13;;;15.10;1.00;;;;;;5042514;28;20445;-82
2023/09/27 03:43:14;;;;;;;13.80;7.80;;;15.10;1.00;;;;;;5022925;28;20484;-82
2023/09/27 03:45:40;;;;;;;12.60;7.43;;;15.10;19.30;;;;;;5042118;28;20235;-84
2023/09/27 03:48:05;;;;;;;17.27;7.90;;;15.10;99.90;;;;;;5043539;28;20457;-84
2023/09/27 03:50:31;;;;;;;9.90;7.30;;;15.10;99.90;;;;;;5042602;28;20607;-81
2023/09/27 03:52:57;;;;;;;13.77;8.13;;;15.00;99.90;;;;;;5042154;28;20289;-83
2023/09/27 03:55:23;;;;;;;15.40;8.27;;;15.00;99.90;;;;;;5041191;28;20283;-82
2023/09/27 03:57:48;;;;;;;12.70;8.50;;;14.90;1.00;;;;;;5025033;28;20452;-83
2023/09/27 04:00:16;;;;;;;12.50;8.50;;;14.80;1.00;;;;;;5027501;28;20655;-80
2023/09/27 04:02:42;;;;;;;10.90;8.03;;;14.80;21.50;;;;;;5042701;28;20202;-80
2023/09/27 04:05:09;;;;;;;10.47;7.13;;;14.80;1.00;;;;;;5043378;28;20583;-82
2023/09/27 04:07:35;;;;;;;9.03;7.40;;;14.70;1.00;;;;;;5040786;28;20950;-82
2023/09/27 04:10:00;;;;;;;12.80;8.30;;;14.70;36.30;;;;;;5042965;28;20459;-80
2023/09/27 04:12:26;;;;;;;13.30;8.23;;;14.70;1.00;;;;;;5039582;28;20914;-83
2023/09/27 04:14:52;;;;;;;10.50;8.50;;;14.70;1.00;;;;;;5042351;28;20193;-83
2023/09/27 04:17:17;;;;;;;12.33;8.10;;;14.70;1.00;;;;;;5045531;28;20205;-82
2023/09/27 04:19:43;;;;;;;10.90;7.20;;;14.60;13.70;;;;;;5039533;28;20528;-82
2023/09/27 04:22:09;;;;;;;13.50;8.10;;;14.60;1.00;;;;;;5038365;28;20274;-84
2023/09/27 04:24:34;;;;;;;11.50;7.33;;;14.50;1.00;;;;;;5016676;28;20197;-82
2023/09/27 04:27:00;;;;;;;8.07;7.10;;;14.40;54.20;;;;;;5032411;28;20182;-81
2023/09/27 04:29:26;;;;;;;9.97;8.60;;;14.30;7.70;;;;;;5029569;28;20244;-82
2023/09/27 04:31:52;;;;;;;11.50;9.00;;;14.30;99.90;;;;;;5031240;28;20193;-82
2023/09/27 04:34:17;;;;;;;9.90;8.30;;;14.20;99.90;;;;;;5018739;28;20442;-82
2023/09/27 04:36:44;;;;;;;8.13;7.33;;;14.20;99.90;;;;;;5012396;28;20441;-82
2023/09/27 04:39:13;;;;;;;8.40;6.93;;;14.20;99.90;;;;;;5012306;28;20187;-84
2023/09/27 04:41:38;;;;;;;8.13;6.53;;;14.30;99.90;;;;;;5017696;28;20444;-84
2023/09/27 04:44:05;;;;;;;10.27;6.80;;;14.30;99.90;;;;;;5031495;28;20442;-84
2023/09/27 04:46:32;;;;;;;6.90;6.20;;;14.30;99.90;;;;;;5023927;28;20217;-81
2023/09/27 04:48:58;;;;;;;8.60;6.63;;;14.30;41.00;;;;;;5013282;28;20528;-81
2023/09/27 04:51:24;;;;;;;10.43;7.40;;;14.30;1.00;;;;;;5034616;28;21043;-84
2023/09/27 04:53:49;;;;;;;11.20;7.53;;;14.30;1.00;;;;;;5010383;28;20683;-81
2023/09/27 04:56:15;;;;;;;8.67;7.23;;;14.20;1.00;;;;;;5019225;28;20186;-81
2023/09/27 04:58:43;;;;;;;11.00;7.87;;;14.10;18.50;;;;;;5029984;28;20202;-81
2023/09/27 05:01:10;;;;;;;7.80;7.00;;;14.10;99.90;;;;;;5029224;28;20183;-81
2023/09/27 05:03:39;;;;;;;8.40;7.13;;;14.10;99.90;;;;;;5028049;28;20469;-82
2023/09/27 05:06:05;;;;;;;10.43;7.10;;;14.20;99.90;;;;;;5034592;28;20469;-84
2023/09/27 05:08:30;;;;;;;8.50;7.57;;;14.20;99.90;;;;;;5030409;28;20446;-83
2023/09/27 05:10:56;;;;;;;10.03;7.50;;;14.20;74.70;;;;;;5030443;28;20190;-82
2023/09/27 05:13:22;;;;;;;8.50;7.57;;;14.20;21.50;;;;;;5029687;28;20209;-82
2023/09/27 05:15:49;;;;;;;11.23;7.00;;;14.20;32.40;;;;;;5033587;28;20186;-80
2023/09/27 05:18:14;;;;;;;7.93;6.77;;;14.20;61.10;;;;;;5028424;28;20455;-84
2023/09/27 05:20:40;;;;;;;12.23;7.20;;;14.20;13.90;;;;;;5015065;28;20445;-83
2023/09/27 05:23:05;;;;;;;10.57;8.07;;;14.20;1.00;;;;;;5029033;28;20216;-83
2023/09/27 05:25:31;;;;;;;10.37;7.43;;;14.10;1.00;;;;;;5030934;28;20202;-82
2023/09/27 05:27:57;;;;;;;9.73;7.53;;;14.10;1.00;;;;;;5033242;28;20178;-83
2023/09/27 05:30:23;;;;;;;11.97;8.50;;;14.00;13.40;;;;;;5016543;28;20190;-84
2023/09/27 05:32:48;;;;;;;12.27;8.40;;;14.10;94.50;;;;;;5035242;28;20211;-80
2023/09/27 05:35:14;;;;;;;8.43;7.33;;;14.10;54.00;;;;;;5039516;28;20182;-82
2023/09/27 05:37:41;;;;;;;10.30;7.80;;;14.30;57.90;;;;;;5037581;28;20224;-83
2023/09/27 05:40:09;;;;;;;9.10;7.60;;;14.40;73.20;;;;;;5038739;28;20190;-82
2023/09/27 05:42:35;;;;;;;10.10;8.70;;;14.50;1.00;;;;;;5032956;28;20559;-83
2023/09/27 05:45:01;;;;;;;10.83;7.30;;;14.60;1.00;;;;;;5036761;28;20799;-82
2023/09/27 05:47:26;;;;;;;9.97;7.90;;;14.60;1.00;;;;;;5022628;28;20493;-82
2023/09/27 05:49:53;;;;;;;7.87;6.70;;;14.70;1.00;;;;;;5037732;28;20209;-83
2023/09/27 05:52:19;;;;;;;13.57;7.77;;;14.80;1.00;;;;;;5031032;28;22355;-82
2023/09/27 05:54:46;;;;;;;10.53;7.10;;;14.90;99.90;;;;;;5039563;28;20436;-84
2023/09/27 05:57:11;;;;;;;8.10;7.30;;;15.00;99.90;;;;;;5031577;28;20452;-83
2023/09/27 05:59:40;;;;;;;7.80;7.00;;;15.10;9.20;;;;;;5036787;28;20781;-83
2023/09/27 06:02:06;;;;;;;8.33;7.30;;;15.10;99.90;;;;;;5015346;28;20683;-80
2023/09/27 06:04:32;;;;;;;8.90;6.70;;;15.10;99.90;;;;;;5031509;28;20476;-82
2023/09/27 06:06:58;;;;;;;13.33;6.60;;;16.70;99.90;;;;;;5011769;28;21191;-84
2023/09/27 06:09:24;;;;;;;5.50;4.90;;;19.40;99.90;;;;;;5040072;28;20182;-80
2023/09/27 06:11:50;;;;;;;14.43;6.37;;;21.70;51.90;;;;;;5046285;28;20236;-80
2023/09/27 06:14:16;;;;;;;7.73;4.80;;;;;;;;;;5036379;28;21020;-81
2023/09/27 06:16:44;;;;;;;9.97;5.80;;;23.90;1.00;;;;;;5041889;28;20228;-83
2023/09/27 06:19:11;;;;;;;9.83;6.03;;;22.60;1.00;;;;;;5036335;28;20453;-82
2023/09/27 06:21:37;;;;;;;6.33;5.70;;;21.50;1.00;;;;;;5040705;28;20471;-82
2023/09/27 06:24:03;;;;;;;8.30;5.90;;;20.60;1.00;;;;;;5042243;28;21069;-81
2023/09/27 06:26:30;;;;;;;9.73;5.83;;;19.80;1.00;;;;;;5039275;28;20473;-82
2023/09/27 06:28:55;;;;;;;7.10;6.40;;;19.30;5.20;;;;;;5038833;28;20444;-81
2023/09/27 06:31:21;;;;;;;11.27;6.80;;;18.80;59.50;;;;;;5042360;28;20205;-81
2023/09/27 06:33:47;;;;;;;12.40;6.97;;;18.20;1.00;;;;;;5044393;28;20675;-81
2023/09/27 06:36:16;;;;;;;10.87;6.37;;;17.70;99.90;;;;;;5025740;28;20444;-83
2023/09/27 06:38:41;;;;;;;13.07;6.27;;;17.40;1.00;;;;;;5040734;28;20455;-82
2023/09/27 06:41:08;;;;;;;9.57;5.90;;;17.30;1.00;;;;;;5046333;28;20445;-81
2023/09/27 06:43:34;;;;;;;14.07;6.57;;;17.30;1.00;;;;;;5047984;28;20220;-83
2023/09/27 06:46:07;;;;;;;13.93;7.50;;;17.40;1.00;;;;;;5041654;28;20476;-81
2023/09/27 06:48:33;;;;;;;14.90;6.73;;;;;;;;;;5046960;28;20623;-83
2023/09/27 06:50:58;;;;;;;15.07;7.00;;;17.50;1.00;;;;;;5033055;28;20459;-83
2023/09/27 06:53:24;;;;;;;14.60;6.30;;;17.50;1.00;;;;;;5041292;28;20463;-82
2023/09/27 06:55:53;;;;;;;19.67;6.70;;;17.60;1.00;;;;;;5026622;28;20312;-81
2023/09/27 06:58:23;;;;;;;21.07;6.93;;;17.80;1.00;;;;;;5020128;28;20734;-81
2023/09/27 07:00:50;;;;;;;20.30;6.97;;;17.90;1.00;;;;;;5041205;28;20790;-81
2023/09/27 07:03:16;;;;;;;15.27;7.80;;;;;;;;;;5039450;28;20471;-82
2023/09/27 07:05:41;;;;;;;18.07;6.40;;;19.30;99.90;;;;;;5031111;28;20464;-82
2023/09/27 07:08:07;;;;;;;11.37;6.60;;;20.00;1.00;;;;;;5042624;28;20455;-81
2023/09/27 07:10:32;;;;;;;12.70;6.67;;;20.80;1.00;;;;;;5024993;28;20562;-81
2023/09/27 07:12:58;;;;;;;14.43;6.17;;;21.50;1.00;;;;;;5040379;28;20209;-82
2023/09/27 07:15:23;;;;;;;9.57;5.37;;;21.90;1.00;;;;;;5043482;28;20217;-79
2023/09/27 07:17:49;;;;;;;9.03;4.73;;;22.10;1.00;;;;;;5045070;28;20198;-81
2023/09/27 07:22:44;;;;;;;15.43;6.23;;;22.10;1.00;;;;;;5039946;28;20210;-80
2023/09/27 07:25:16;;;;;;;11.07;5.73;;;21.90;1.00;;;;;;5031103;28;20997;-79
2023/09/27 07:27:43;;;;;;;13.50;6.17;;;21.80;1.00;;;;;;5053133;28;20280;-81
2023/09/27 07:30:17;;;;;;;10.07;5.10;;;21.90;1.00;;;;;;5028049;28;20448;-81
2023/09/27 07:32:44;;;;;;;11.43;5.30;;;22.10;1.00;;;;;;5033393;28;20576;-80
2023/09/27 07:35:10;;;;;;;11.87;5.90;;;22.80;1.00;;;;;;5029545;28;20527;-79
2023/09/27 07:37:39;;;;;;;14.47;6.47;;;22.70;1.00;;;;;;5048625;28;20448;-80
2023/09/27 07:40:11;;;;;;;8.30;5.23;;;22.40;1.00;;;;;;5051281;28;20436;-81
2023/09/27 07:42:44;;;;;;;16.60;7.50;;;22.10;1.00;;;;;;5033733;28;20464;-80
2023/09/27 07:45:21;;;;;;;7.87;6.60;;;22.20;1.00;;;;;;5050215;28;20553;-79
2023/09/27 07:47:56;;;;;;;15.50;7.43;;;22.80;1.00;;;;;;5050239;28;20532;-80
2023/09/27 07:50:26;;;;;;;13.93;7.50;;;23.60;1.00;;;;;;5047489;28;20440;-81
2023/09/27 07:52:53;;;;;;;18.57;7.87;;;23.60;1.00;;;;;;5050081;28;20479;-83
2023/09/27 07:55:21;;;;;;;16.33;8.80;;;23.60;1.00;;;;;;5043977;28;20443;-81
2023/09/27 07:57:46;;;;;;;14.07;9.67;;;23.50;1.00;;;;;;5036007;28;20460;-82
2023/09/27 08:00:17;;;;;;;11.57;7.40;;;23.80;1.00;;;;;;5052857;28;20443;-81
2023/09/27 08:02:44;;;;;;;9.80;6.90;;;25.30;1.00;;;;;;5042409;28;20583;-80
2023/09/27 08:05:10;;;;;;;7.10;5.83;;;25.20;1.00;;;;;;5053293;28;20472;-81
2023/09/27 08:07:36;;;;;;;8.23;5.20;;;25.50;1.00;;;;;;5052199;28;20451;-81
2023/09/27 08:10:02;;;;;;;9.07;6.23;;;25.60;1.00;;;;;;5049620;28;20650;-81
2023/09/27 08:12:31;;;;;;;7.43;4.90;;;24.90;1.00;;;;;;5048324;28;20521;-83
2023/09/27 08:15:00;;;;;;;8.20;5.63;;;25.80;1.00;;;;;;5051202;28;20436;-81
2023/09/27 08:17:26;;;;;;;7.17;5.17;;;26.10;1.00;;;;;;5047224;28;20447;-81
2023/09/27 08:19:52;;;;;;;5.87;4.80;;;25.40;1.00;;;;;;5051229;28;20468;-81
2023/09/27 08:22:17;;;;;;;9.03;5.10;;;24.90;1.00;;;;;;5050809;28;20958;-82
2023/09/27 08:24:43;;;;;;;9.53;6.00;;;24.70;1.00;;;;;;5049110;28;20620;-78
2023/09/27 08:27:08;;;;;;;11.13;5.90;;;24.70;1.00;;;;;;5048460;28;20182;-81
2023/09/27 08:29:34;;;;;;;8.00;5.13;;;24.80;1.00;;;;;;5052586;28;20242;-82
2023/09/27 08:32:00;;;;;;;5.90;4.37;;;24.90;1.00;;;;;;5036966;28;20206;-82
2023/09/27 08:34:26;;;;;;;5.03;3.77;;;26.90;1.00;;;;;;5054755;28;20882;-81
2023/09/27 08:36:52;;;;;;;7.60;4.87;;;28.70;99.90;;;;;;5051513;28;20201;-82
2023/09/27 08:39:18;;;;;;;6.03;3.93;;;29.30;99.90;;;;;;5048922;28;20320;-82
2023/09/27 08:41:44;;;;;;;5.80;4.37;;;29.50;99.90;;;;;;5049986;28;20441;-81
2023/09/27 08:44:13;;;;;;;4.67;4.27;;;29.90;99.90;;;;;;5035211;28;20442;-81
2023/09/27 08:46:40;;;;;;;6.00;4.03;;;30.70;99.90;;;;;;5050601;28;20760;-83
2023/09/27 08:49:10;;;;;;;5.20;3.70;;;31.10;99.90;;;;;;5049614;28;20465;-82
2023/09/27 08:51:38;;;;;;;6.80;3.80;;;31.20;99.90;;;;;;5053596;28;20477;-81
2023/09/27 08:54:04;;;;;;;5.33;3.53;;;30.80;99.90;;;;;;5054638;28;20437;-82
2023/09/27 08:56:30;;;;;;;5.93;3.60;;;31.00;99.90;;;;;;5053822;28;20936;-80
2023/09/27 08:58:57;;;;;;;4.97;3.47;;;31.00;99.90;;;;;;5054360;28;20550;-82
2023/09/27 09:01:24;;;;;;;5.33;3.20;;;31.50;99.90;;;;;;5033085;28;20448;-81
2023/09/27 09:03:51;;;;;;;7.47;4.00;;;31.30;99.90;;;;;;5050615;28;20456;-82
2023/09/27 09:06:18;;;;;;;8.00;3.80;;;30.80;99.90;;;;;;5049931;28;20473;-81
2023/09/27 09:08:44;;;;;;;4.10;3.13;;;31.10;99.90;;;;;;5047942;28;20790;-83
2023/09/27 09:11:10;;;;;;;4.73;3.57;;;31.60;99.90;;;;;;5051411;28;20545;-81
2023/09/27 09:14:03;;;;;;;5.63;3.23;;;32.60;99.90;;;;;;5053761;28;20209;-82
2023/09/27 09:16:39;;;;;;;5.27;3.20;;;33.10;99.90;;;;;;5051356;28;20442;-82
2023/09/27 09:19:25;;;;;;;6.20;3.30;;;34.60;99.90;;;;;;5048002;28;20470;-80
2023/09/27 09:22:00;;;;;;;5.40;3.53;;;35.90;99.90;;;;;;5046031;28;20451;-81
2023/09/27 09:24:26;;;;;;;4.30;2.90;;;38.10;99.90;;;;;;5047682;28;20439;-80
2023/09/27 09:27:10;;;;;;;4.07;3.53;;;39.70;99.90;;;;;;5051353;28;20478;-78
2023/09/27 09:29:50;;;;;;;11.03;3.43;;;37.80;99.90;;;;;;5046913;28;20249;-79
2023/09/27 09:32:20;;;;;;;4.53;4.10;;;36.60;99.90;;;;;;5041388;28;20526;-78
2023/09/27 09:34:47;;;;;;;7.50;3.20;;;35.00;99.90;;;;;;5047564;28;20472;-80
2023/09/27 09:37:21;;;;;;;3.97;2.83;;;35.40;99.90;;;;;;5045207;28;20922;-80
2023/09/27 09:39:51;;;;;;;6.17;3.33;;;35.90;99.90;;;;;;5044854;28;20444;-80
2023/09/27 09:42:34;;;;;;;5.63;3.60;;;37.50;99.90;;;;;;5041840;28;20535;-78
2023/09/27 09:45:07;;;;;;;7.43;3.73;;;38.30;99.90;;;;;;5024800;28;20490;-78
2023/09/27 09:47:43;;;;;;;4.43;3.33;;;38.80;99.90;;;;;;5046946;28;20460;-79
2023/09/27 09:50:16;;;;;;;3.60;3.30;;;39.80;99.90;;;;;;5046464;28;20435;-81
2023/09/27 09:53:02;;;;;;;4.83;2.77;;;41.20;99.90;;;;;;5043026;28;20829;-82
2023/09/27 09:55:29;;;;;;;2.90;2.60;;;40.90;99.90;;;;;;5043173;28;20470;-81
2023/09/27 09:58:21;;;;;;;4.40;3.40;;;40.50;99.90;;;;;;5036112;28;20543;-81
2023/09/27 10:00:52;;;;;;;6.60;3.40;;;39.70;99.90;;;;;;5038438;28;20982;-81
2023/09/27 10:03:20;;;;;;;4.80;2.90;;;39.70;99.90;;;;;;5041977;28;20452;-80
2023/09/27 10:05:50;;;;;;;5.13;3.10;;;40.30;99.90;;;;;;5036758;28;20444;-81
2023/09/27 10:08:17;;;;;;;6.17;3.47;;;39.90;99.90;;;;;;5040750;28;20463;-80
2023/09/27 10:10:43;;;;;;;3.80;2.63;;;40.70;99.90;;;;;;5034850;28;20436;-79
2023/09/27 10:13:10;;;;;;;8.93;3.90;;;40.60;99.40;;;;;;5041586;28;20457;-80
2023/09/27 10:15:38;;;;;;;3.87;2.90;;;41.00;99.50;;;;;;5042885;28;20672;-81
2023/09/27 10:18:22;;;;;;;5.57;2.87;;;40.90;98.60;;;;;;5040225;28;20444;-82
2023/09/27 10:21:04;;;;;;;3.90;2.80;;;40.50;97.30;;;;;;5040450;28;20916;-81
2023/09/27 10:23:45;;;;;;;3.90;2.63;;;40.00;97.00;;;;;;5037593;28;20456;-80
2023/09/27 10:26:29;;;;;;;3.60;2.87;;;39.70;93.60;;;;;;5049496;28;20435;-80
2023/09/27 10:29:01;;;;;;;4.30;2.97;;;38.90;94.30;;;;;;5026135;28;20446;-80
2023/09/27 10:31:27;;;;;;;6.90;2.93;;;39.40;94.80;;;;;;5045149;28;20440;-80
2023/09/27 10:33:53;;;;;;;6.23;2.50;;;38.70;91.10;;;;;;5041338;28;20465;-80
2023/09/27 10:36:19;;;;;;;6.73;3.50;;;37.90;87.10;;;;;;5041029;28;20502;-78
2023/09/27 10:38:47;;;;;;;7.93;3.13;;;37.20;84.10;;;;;;5052679;28;20452;-80
2023/09/27 10:41:31;;;;;;;17.73;5.10;;;36.40;85.10;;;;;;5055289;28;20686;-81
2023/09/27 10:43:57;;;;;;;3.57;2.47;;;35.60;80.90;;;;;;5054571;28;20810;-81
2023/09/27 10:46:24;;;;;;;3.73;3.00;;;34.90;82.00;;;;;;5053195;28;20451;-79
2023/09/27 10:48:57;;;;;;;5.43;2.90;;;34.20;81.50;;;;;;5055553;28;20489;-80
2023/09/27 10:51:25;;;;;;;4.50;2.90;;;34.50;84.90;;;;;;5052239;28;20528;-80
2023/09/27 10:53:51;;;;;;;5.70;3.20;;;34.60;91.00;;;;;;5053808;28;20467;-80
2023/09/27 10:56:17;;;;;;;5.53;3.40;;;34.80;93.20;;;;;;5053970;28;20482;-80
2023/09/27 10:58:49;;;;;;;3.60;3.00;;;35.00;93.80;;;;;;5054603;28;20792;-81
2023/09/27 11:01:19;;;;;;;7.00;3.27;;;34.00;88.50;;;;;;5038388;28;20589;-80
2023/09/27 11:03:45;;;;;;;6.10;2.83;;;33.40;84.30;;;;;;5051350;28;20477;-80
2023/09/27 11:06:11;;;;;;;5.50;3.30;;;33.90;92.40;;;;;;5033704;28;20458;-80
2023/09/27 11:08:37;;;;;;;8.07;2.90;;;33.20;90.30;;;;;;5044840;28;20332;-78
2023/09/27 11:11:06;;;;;;;7.47;2.90;;;33.00;85.50;;;;;;5052620;28;20940;-79
2023/09/27 11:13:32;;;;;;;7.27;2.87;;;32.60;83.70;;;;;;5054851;28;20207;-80
2023/09/27 11:16:15;;;;;;;4.60;2.50;;;31.90;81.70;;;;;;5038715;28;20499;-80
2023/09/27 11:18:57;;;;;;;4.90;2.60;;;31.30;80.90;;;;;;5036671;28;20317;-79
2023/09/27 11:21:24;;;;;;;9.57;3.27;;;31.10;82.10;;;;;;5032247;28;20437;-79
2023/09/27 11:24:00;;;;;;;4.50;2.63;;;31.00;85.40;;;;;;5054966;28;20863;-79
2023/09/27 11:26:28;;;;;;;4.93;2.53;;;31.00;90.60;;;;;;5028328;28;21007;-80
2023/09/27 11:29:07;;;;;;;7.70;2.80;;;32.20;96.40;;;;;;5053025;28;20540;-79
2023/09/27 11:31:38;;;;;;;5.70;2.80;;;33.00;99.90;;;;;;5052659;28;20452;-82
2023/09/27 11:34:19;;;;;;;7.07;3.10;;;33.40;99.40;;;;;;5052331;28;20566;-80
2023/09/27 11:36:52;;;;;;;3.30;2.67;;;33.70;99.90;;;;;;5054097;28;20548;-81
2023/09/27 11:39:26;;;;;;;6.43;2.60;;;34.10;99.90;;;;;;5033711;28;20437;-81
2023/09/27 11:41:59;;;;;;;5.27;2.00;;;35.40;99.90;;;;;;5052995;28;20486;-80
2023/09/27 11:44:27;;;;;;;4.27;2.30;;;35.50;99.90;;;;;;5052321;28;20527;-81
2023/09/27 11:47:06;;;;;;;3.70;2.40;;;35.00;99.90;;;;;;5050335;28;20437;-81
2023/09/27 11:49:33;;;;;;;6.50;2.80;;;35.60;99.90;;;;;;5050758;28;20440;-80
2023/09/27 11:51:59;;;;;;;7.90;3.10;;;36.00;99.90;;;;;;5031901;28;20473;-81
2023/09/27 11:54:25;;;;;;;7.63;2.70;;;36.40;99.90;;;;;;5050440;28;20437;-80
2023/09/27 11:56:53;;;;;;;4.70;3.17;;;35.90;99.90;;;;;;5052368;28;20464;-81
2023/09/27 11:59:19;;;;;;;12.70;2.70;;;36.10;99.90;;;;;;5050970;28;20288;-81
2023/09/27 12:01:44;;;;;;;5.67;3.10;;;36.10;99.90;;;;;;5049409;28;20540;-81
2023/09/27 12:04:10;;;;;;;7.03;2.40;;;36.10;99.90;;;;;;5049556;28;20183;-79
2023/09/27 12:06:35;;;;;;;3.40;2.43;;;34.80;94.60;;;;;;5051180;28;20270;-80
2023/09/27 12:09:02;;;;;;;4.80;2.20;;;34.30;91.70;;;;;;5033981;28;20185;-80
2023/09/27 12:11:27;;;;;;;5.80;2.60;;;34.10;91.70;;;;;;5052803;28;20196;-79
2023/09/27 12:13:53;;;;;;;3.80;2.37;;;34.20;92.80;;;;;;5036919;28;20463;-80
2023/09/27 12:16:22;;;;;;;5.13;2.50;;;33.90;93.50;;;;;;5033341;28;20296;-81
2023/09/27 12:18:48;;;;;;;3.73;3.17;;;34.40;95.20;;;;;;5051100;28;20211;-80
2023/09/27 12:21:14;;;;;;;4.87;2.90;;;34.00;92.50;;;;;;5050938;28;20467;-80
2023/09/27 12:23:40;;;;;;;7.80;2.90;;;34.00;91.60;;;;;;5046938;28;20215;-78
2023/09/27 12:26:06;;;;;;;3.53;2.40;;;33.50;88.80;;;;;;5050408;28;20443;-80
2023/09/27 12:28:36;;;;;;;6.20;3.10;;;32.80;85.10;;;;;;5049595;28;20187;-80
2023/09/27 12:31:04;;;;;;;6.83;3.13;;;32.70;86.80;;;;;;5048650;28;20442;-81
2023/09/27 12:33:30;;;;;;;6.70;3.47;;;32.40;88.40;;;;;;5051595;28;20516;-81
2023/09/27 12:35:56;;;;;;;9.67;4.73;;;32.70;92.60;;;;;;5046337;28;20586;-78
2023/09/27 12:38:22;;;;;;;7.03;2.97;;;33.10;94.30;;;;;;5044487;28;20445;-81
2023/09/27 12:40:48;;;;;;;6.47;3.17;;;32.90;94.90;;;;;;5047129;28;20179;-81
2023/09/27 12:43:13;;;;;;;8.63;3.27;;;33.10;95.00;;;;;;5054590;28;20475;-80
2023/09/27 12:45:39;;;;;;;7.50;3.30;;;33.00;95.10;;;;;;5042411;28;20777;-81
2023/09/27 12:48:05;;;;;;;6.63;3.20;;;32.90;93.90;;;;;;5048035;28;20191;-81
2023/09/27 12:50:30;;;;;;;5.40;2.90;;;32.50;93.00;;;;;;5050154;28;20669;-81
2023/09/27 12:52:56;;;;;;;4.43;2.73;;;32.80;96.30;;;;;;5047598;28;20211;-81